createdAt,value
2023-03-13T00:02:14.093Z,5.36
2023-03-13T00:04:40.317Z,5.36
2023-03-13T00:07:06.531Z,5.39
2023-03-13T00:09:32.725Z,5.40
2023-03-13T00:11:58.932Z,5.39
2023-03-13T00:14:25.132Z,5.34
2023-03-13T00:16:51.385Z,5.40
2023-03-13T00:19:17.598Z,5.39
2023-03-13T00:21:43.828Z,5.45
2023-03-13T00:24:10.404Z,5.49
2023-03-13T00:26:36.617Z,5.53
2023-03-13T00:29:02.824Z,5.61
2023-03-13T00:31:29.793Z,5.64
2023-03-13T00:34:02.078Z,5.62
2023-03-13T00:36:28.980Z,5.61
2023-03-13T00:38:55.365Z,5.70
2023-03-13T00:41:22.317Z,5.67
2023-03-13T00:43:48.699Z,5.66
2023-03-13T00:46:15.554Z,5.71
2023-03-13T00:48:41.817Z,5.76
2023-03-13T00:51:08.162Z,5.71
2023-03-13T00:53:34.436Z,5.68
2023-03-13T00:56:04.620Z,5.65
2023-03-13T00:58:31.341Z,5.64
2023-03-13T01:00:57.545Z,5.61
2023-03-13T01:03:23.988Z,5.62
2023-03-13T01:06:00.000Z,5.62
2023-03-13T01:08:26.336Z,5.66
2023-03-13T01:10:57.740Z,5.62
2023-03-13T01:13:23.938Z,5.64
2023-03-13T01:15:50.197Z,5.63
2023-03-13T01:18:16.432Z,5.68
2023-03-13T01:20:42.651Z,5.69
2023-03-13T01:23:08.872Z,5.68
2023-03-13T01:25:38.200Z,5.68
2023-03-13T01:28:04.457Z,5.66
2023-03-13T01:30:30.718Z,5.73
2023-03-13T01:32:56.979Z,5.70
2023-03-13T01:35:23.226Z,5.70
2023-03-13T01:37:49.476Z,5.69
2023-03-13T01:40:15.715Z,5.71
2023-03-13T01:42:54.986Z,5.70
2023-03-13T01:45:40.288Z,5.77
2023-03-13T01:48:06.500Z,5.75
2023-03-13T01:50:32.744Z,5.81
2023-03-13T01:52:58.951Z,5.74
2023-03-13T01:55:25.164Z,5.72
2023-03-13T01:57:51.915Z,5.72
2023-03-13T02:00:19.843Z,5.74
2023-03-13T02:02:46.933Z,5.70
2023-03-13T02:05:13.192Z,5.81
2023-03-13T02:07:40.272Z,5.79
2023-03-13T02:10:06.770Z,5.76
2023-03-13T02:12:36.986Z,5.69
2023-03-13T02:15:07.726Z,5.68
2023-03-13T02:17:33.991Z,5.67
2023-03-13T02:20:00.208Z,5.70
2023-03-13T02:22:35.483Z,5.72
2023-03-13T02:25:01.627Z,5.75
2023-03-13T02:27:27.837Z,5.76
2023-03-13T02:29:54.040Z,5.69
2023-03-13T02:32:20.299Z,5.68
2023-03-13T02:34:46.845Z,5.74
2023-03-13T02:37:13.066Z,5.79
2023-03-13T02:39:39.431Z,5.76
2023-03-13T02:42:05.683Z,5.76
2023-03-13T02:44:31.898Z,5.76
2023-03-13T02:46:58.149Z,5.83
2023-03-13T02:49:25.411Z,5.78
2023-03-13T02:51:51.864Z,5.72
2023-03-13T02:54:22.240Z,5.75
2023-03-13T02:56:49.227Z,5.77
2023-03-13T02:59:15.483Z,5.80
2023-03-13T03:01:41.682Z,5.84
2023-03-13T03:04:07.958Z,5.85
2023-03-13T03:06:34.229Z,5.84
2023-03-13T03:09:00.453Z,5.92
2023-03-13T03:11:26.664Z,5.88
2023-03-13T03:13:52.879Z,5.85
2023-03-13T03:16:19.128Z,5.91
2023-03-13T03:18:45.353Z,5.85
2023-03-13T03:21:11.542Z,5.96
2023-03-13T03:23:37.745Z,5.94
2023-03-13T03:26:06.069Z,5.97
2023-03-13T03:28:32.364Z,5.99
2023-03-13T03:31:03.182Z,6.07
2023-03-13T03:33:29.396Z,6.03
2023-03-13T03:35:59.190Z,5.98
2023-03-13T03:38:25.399Z,6.02
2023-03-13T03:40:51.590Z,6.06
2023-03-13T03:43:17.794Z,6.12
2023-03-13T03:45:44.019Z,6.11
2023-03-13T03:48:10.263Z,6.11
2023-03-13T03:50:36.471Z,6.07
2023-03-13T03:53:02.696Z,6.07
2023-03-13T03:55:28.891Z,6.15
2023-03-13T03:57:55.091Z,6.20
2023-03-13T04:00:21.310Z,6.19
2023-03-13T04:02:47.526Z,6.27
2023-03-13T04:05:13.739Z,6.29
2023-03-13T04:07:39.951Z,6.29
2023-03-13T04:10:06.409Z,6.31
2023-03-13T04:12:32.643Z,6.32
2023-03-13T04:14:58.855Z,6.27
2023-03-13T04:17:26.786Z,6.30
2023-03-13T04:19:52.998Z,6.32
2023-03-13T04:22:19.211Z,6.26
2023-03-13T04:24:45.428Z,6.23
2023-03-13T04:27:11.635Z,6.19
2023-03-13T04:29:37.843Z,6.25
2023-03-13T04:32:04.073Z,6.28
2023-03-13T04:34:30.307Z,6.33
2023-03-13T04:36:56.511Z,6.32
2023-03-13T04:39:22.730Z,6.31
2023-03-13T04:41:48.934Z,6.33
2023-03-13T04:44:15.150Z,6.34
2023-03-13T04:46:44.478Z,6.32
2023-03-13T04:49:10.820Z,6.37
2023-03-13T04:51:37.129Z,6.42
2023-03-13T04:54:03.784Z,6.44
2023-03-13T04:56:42.772Z,6.50
2023-03-13T04:59:13.438Z,6.52
2023-03-13T05:01:40.040Z,6.51
2023-03-13T05:04:06.505Z,6.53
2023-03-13T05:06:32.909Z,6.48
2023-03-13T05:09:03.637Z,6.56
2023-03-13T05:11:29.967Z,6.53
2023-03-13T05:13:58.296Z,6.53
2023-03-13T05:16:24.663Z,6.51
2023-03-13T05:18:54.036Z,6.49
2023-03-13T05:21:20.366Z,6.50
2023-03-13T05:23:52.221Z,6.50
2023-03-13T05:26:26.080Z,6.52
2023-03-13T05:28:52.536Z,6.50
2023-03-13T05:31:21.283Z,6.53
2023-03-13T05:33:55.154Z,6.52
2023-03-13T05:36:23.280Z,6.55
2023-03-13T05:38:49.618Z,6.57
2023-03-13T05:41:19.248Z,6.60
2023-03-13T05:43:45.574Z,6.54
2023-03-13T05:46:11.820Z,6.57
2023-03-13T05:48:41.089Z,6.58
2023-03-13T05:51:07.301Z,6.64
2023-03-13T05:53:33.511Z,6.61
2023-03-13T05:55:59.715Z,6.63
2023-03-13T05:58:25.920Z,6.67
2023-03-13T06:00:52.115Z,6.67
2023-03-13T06:03:18.378Z,6.65
2023-03-13T06:05:44.610Z,6.68
2023-03-13T06:08:10.823Z,6.69
2023-03-13T06:10:37.032Z,6.70
2023-03-13T06:13:18.696Z,6.76
2023-03-13T06:15:52.504Z,6.77
2023-03-13T06:18:18.807Z,6.74
2023-03-13T06:20:44.999Z,6.77
2023-03-13T06:23:11.205Z,6.83
2023-03-13T06:25:37.424Z,6.81
2023-03-13T06:28:03.633Z,6.84
2023-03-13T06:30:29.846Z,6.88
2023-03-13T06:32:56.189Z,6.92
2023-03-13T06:35:22.480Z,6.96
2023-03-13T06:37:48.698Z,6.98
2023-03-13T06:40:15.104Z,7.04
2023-03-13T06:42:41.404Z,7.01
2023-03-13T06:45:08.006Z,7.08
2023-03-13T06:47:34.297Z,7.10
2023-03-13T06:50:02.287Z,7.08
2023-03-13T06:52:41.226Z,7.06
2023-03-13T06:55:09.804Z,7.11
2023-03-13T06:57:36.006Z,7.13
2023-03-13T07:00:02.222Z,7.11
2023-03-13T07:02:28.635Z,7.14
2023-03-13T07:04:54.860Z,7.14
2023-03-13T07:07:31.270Z,7.17
2023-03-13T07:09:58.279Z,7.21
2023-03-13T07:12:27.082Z,7.24
2023-03-13T07:14:57.097Z,7.29
2023-03-13T07:17:23.334Z,7.34
2023-03-13T07:19:49.948Z,7.32
2023-03-13T07:22:16.167Z,7.41
2023-03-13T07:24:42.548Z,7.40
2023-03-13T07:27:08.919Z,7.32
2023-03-13T07:29:35.158Z,7.40
2023-03-13T07:32:01.533Z,7.46
2023-03-13T07:34:27.907Z,7.49
2023-03-13T07:36:54.113Z,7.49
2023-03-13T07:39:20.324Z,7.51
2023-03-13T07:41:46.676Z,7.45
2023-03-13T07:44:12.889Z,7.63
2023-03-13T07:46:42.444Z,7.62
2023-03-13T07:49:09.088Z,7.71
2023-03-13T07:51:43.517Z,7.80
2023-03-13T07:54:10.574Z,7.82
2023-03-13T07:56:36.941Z,7.82
2023-03-13T07:59:03.183Z,7.82
2023-03-13T08:01:31.121Z,7.89
2023-03-13T08:03:57.608Z,7.88
2023-03-13T08:06:24.346Z,7.95
2023-03-13T08:08:50.821Z,8.02
2023-03-13T08:11:17.816Z,8.02
2023-03-13T08:13:44.191Z,8.11
2023-03-13T08:16:13.487Z,8.15
2023-03-13T08:18:40.609Z,8.18
2023-03-13T08:21:07.500Z,8.25
2023-03-13T08:23:33.766Z,8.29
2023-03-13T08:26:06.945Z,8.32
2023-03-13T08:28:33.182Z,8.37
2023-03-13T08:30:59.528Z,8.46
2023-03-13T08:33:25.768Z,8.52
2023-03-13T08:35:52.082Z,8.55
2023-03-13T08:38:18.304Z,8.59
2023-03-13T08:40:44.514Z,8.60
2023-03-13T08:43:10.768Z,8.64
2023-03-13T08:45:36.976Z,8.70
2023-03-13T08:48:03.184Z,8.71
2023-03-13T08:50:29.398Z,8.68
2023-03-13T08:52:55.599Z,8.74
2023-03-13T08:55:21.807Z,8.72
2023-03-13T08:57:48.013Z,8.76
2023-03-13T09:00:14.486Z,8.83
2023-03-13T09:02:40.737Z,8.81
2023-03-13T09:05:07.279Z,8.82
2023-03-13T09:07:33.486Z,8.88
2023-03-13T09:09:59.712Z,8.90
2023-03-13T09:12:31.077Z,8.93
2023-03-13T09:14:57.804Z,8.92
2023-03-13T09:17:24.022Z,8.96
2023-03-13T09:19:59.798Z,9.01
2023-03-13T09:22:26.997Z,9.06
2023-03-13T09:24:53.236Z,9.10
2023-03-13T09:27:19.443Z,9.11
2023-03-13T09:29:45.665Z,9.12
2023-03-13T09:32:11.881Z,9.14
2023-03-13T09:34:38.087Z,9.19
2023-03-13T09:37:04.278Z,9.21
2023-03-13T09:39:30.492Z,9.27
2023-03-13T09:42:02.898Z,9.31
2023-03-13T09:44:29.565Z,9.38
2023-03-13T09:46:59.758Z,9.44
2023-03-13T09:49:29.882Z,9.51
2023-03-13T09:52:19.399Z,9.57
2023-03-13T09:54:46.751Z,9.64
2023-03-13T09:57:15.202Z,9.66
2023-03-13T09:59:41.381Z,9.67
2023-03-13T10:02:16.490Z,9.78
2023-03-13T10:04:44.343Z,9.82
2023-03-13T10:07:11.036Z,9.79
2023-03-13T10:09:37.254Z,9.82
2023-03-13T10:12:05.275Z,9.82
2023-03-13T10:14:35.440Z,9.81
2023-03-13T10:17:06.553Z,9.83
2023-03-13T10:19:34.542Z,9.96
2023-03-13T10:22:01.990Z,9.99
2023-03-13T10:24:37.357Z,10.02
2023-03-13T10:27:03.588Z,10.07
2023-03-13T10:29:30.135Z,10.10
2023-03-13T10:31:57.218Z,10.14
2023-03-13T10:34:23.777Z,10.27
2023-03-13T10:36:50.132Z,10.37
2023-03-13T10:39:20.210Z,10.45
2023-03-13T10:41:46.506Z,10.51
2023-03-13T10:44:15.551Z,10.58
2023-03-13T10:46:43.110Z,10.67
2023-03-13T10:49:22.109Z,10.70
2023-03-13T10:51:49.425Z,10.70
2023-03-13T10:54:16.563Z,10.74
2023-03-13T10:56:42.867Z,10.79
2023-03-13T10:59:19.481Z,10.81
2023-03-13T11:01:45.699Z,10.78
2023-03-13T11:04:30.765Z,10.82
2023-03-13T11:06:58.587Z,10.85
2023-03-13T11:09:24.798Z,10.92
2023-03-13T11:11:52.957Z,10.95
2023-03-13T11:14:22.162Z,11.02
2023-03-13T11:16:49.161Z,11.09
2023-03-13T11:19:27.464Z,11.15
2023-03-13T11:22:02.908Z,11.22
2023-03-13T11:24:46.074Z,11.32
2023-03-13T11:27:21.520Z,11.39
2023-03-13T11:30:06.755Z,11.49
2023-03-13T11:32:43.090Z,11.55
2023-03-13T11:35:16.584Z,11.67
2023-03-13T11:37:42.790Z,11.73
2023-03-13T11:40:20.241Z,11.75
2023-03-13T11:42:46.400Z,12.02
2023-03-13T11:45:22.909Z,12.30
2023-03-13T11:48:06.643Z,12.54
2023-03-13T11:50:37.268Z,12.52
2023-03-13T11:53:18.844Z,12.66
2023-03-13T11:55:57.174Z,12.80
2023-03-13T11:58:26.064Z,12.82
2023-03-13T12:01:02.966Z,12.80
2023-03-13T12:03:40.031Z,12.88
2023-03-13T12:06:15.850Z,12.89
2023-03-13T12:08:51.199Z,12.93
2023-03-13T12:11:18.052Z,13.01
2023-03-13T12:13:52.218Z,12.96
2023-03-13T12:16:19.305Z,13.00
2023-03-13T12:18:45.828Z,13.16
2023-03-13T12:21:15.233Z,13.30
2023-03-13T12:24:00.372Z,13.22
2023-03-13T12:26:31.737Z,13.24
2023-03-13T12:29:03.252Z,13.28
2023-03-13T12:31:31.913Z,13.72
2023-03-13T12:34:00.038Z,13.97
2023-03-13T12:36:28.325Z,13.80
2023-03-13T12:38:57.573Z,13.87
2023-03-13T12:41:24.667Z,13.90
2023-03-13T12:44:07.675Z,13.99
2023-03-13T12:46:45.868Z,14.04
2023-03-13T12:49:30.746Z,13.99
2023-03-13T12:52:06.142Z,13.87
2023-03-13T12:54:51.141Z,13.89
2023-03-13T12:57:43.520Z,13.81
2023-03-13T13:00:16.660Z,13.73
2023-03-13T13:02:42.916Z,13.84
2023-03-13T13:05:19.254Z,14.00
2023-03-13T13:07:51.683Z,14.14
2023-03-13T13:10:19.113Z,14.20
2023-03-13T13:12:45.884Z,14.27
2023-03-13T13:15:27.476Z,14.27
2023-03-13T13:17:53.668Z,14.36
2023-03-13T13:20:27.100Z,14.57
2023-03-13T13:22:53.320Z,14.67
2023-03-13T13:25:30.336Z,14.76
2023-03-13T13:27:58.991Z,14.86
2023-03-13T13:30:29.391Z,14.79
2023-03-13T13:32:56.306Z,14.50
2023-03-13T13:35:26.450Z,14.45
2023-03-13T13:37:52.692Z,14.45
2023-03-13T13:40:19.718Z,14.63
2023-03-13T13:42:49.628Z,14.52
2023-03-13T13:45:15.804Z,14.71
2023-03-13T13:47:42.495Z,14.78
2023-03-13T13:50:18.140Z,14.59
2023-03-13T13:52:44.339Z,14.59
2023-03-13T13:55:29.161Z,14.59
2023-03-13T13:58:05.199Z,14.82
2023-03-13T14:00:41.837Z,14.85
2023-03-13T14:03:16.265Z,14.86
2023-03-13T14:05:42.519Z,15.04
2023-03-13T14:08:20.631Z,15.23
2023-03-13T14:11:05.827Z,15.31
2023-03-13T14:13:32.034Z,15.22
2023-03-13T14:15:58.285Z,15.14
2023-03-13T14:18:28.115Z,15.01
2023-03-13T14:20:58.513Z,14.81
2023-03-13T14:23:34.061Z,14.78
2023-03-13T14:26:08.554Z,14.74
2023-03-13T14:28:35.057Z,14.81
2023-03-13T14:31:01.385Z,14.87
2023-03-13T14:33:27.626Z,14.87
2023-03-13T14:35:53.965Z,14.75
2023-03-13T14:38:21.040Z,14.73
2023-03-13T14:40:47.259Z,14.78
2023-03-13T14:43:18.348Z,14.78
2023-03-13T14:45:44.565Z,14.75
2023-03-13T14:48:14.368Z,14.81
2023-03-13T14:50:40.658Z,15.03
2023-03-13T14:53:20.361Z,15.11
2023-03-13T14:55:46.642Z,15.25
2023-03-13T14:58:33.156Z,15.24
2023-03-13T15:00:59.546Z,15.14
2023-03-13T15:03:29.774Z,15.10
2023-03-13T15:06:05.149Z,15.16
2023-03-13T15:08:31.405Z,15.12
2023-03-13T15:10:57.606Z,15.09
2023-03-13T15:13:24.956Z,15.07
2023-03-13T15:15:51.423Z,15.11
2023-03-13T15:18:24.478Z,15.11
2023-03-13T15:20:51.210Z,15.02
2023-03-13T15:23:17.509Z,14.92
2023-03-13T15:25:43.712Z,14.82
2023-03-13T15:28:17.025Z,14.84
2023-03-13T15:30:43.588Z,14.83
2023-03-13T15:33:14.772Z,14.80
2023-03-13T15:35:41.075Z,14.74
2023-03-13T15:38:09.802Z,14.75
2023-03-13T15:40:36.032Z,14.82
2023-03-13T15:43:02.272Z,14.77
2023-03-13T15:45:28.477Z,14.72
2023-03-13T15:47:54.795Z,14.70
2023-03-13T15:50:21.096Z,14.61
2023-03-13T15:52:47.309Z,14.59
2023-03-13T15:55:13.567Z,14.58
2023-03-13T15:57:46.343Z,14.41
2023-03-13T16:00:16.372Z,14.57
2023-03-13T16:02:42.578Z,14.53
2023-03-13T16:05:10.161Z,14.48
2023-03-13T16:07:36.421Z,14.50
2023-03-13T16:10:02.673Z,14.35
2023-03-13T16:12:28.869Z,14.28
2023-03-13T16:14:55.079Z,14.29
2023-03-13T16:17:21.278Z,14.31
2023-03-13T16:19:47.516Z,14.46
2023-03-13T16:22:13.854Z,14.40
2023-03-13T16:24:43.031Z,14.46
2023-03-13T16:27:13.244Z,14.35
2023-03-13T16:29:39.512Z,14.25
2023-03-13T16:32:06.045Z,14.18
2023-03-13T16:34:32.261Z,14.28
2023-03-13T16:36:58.617Z,14.28
2023-03-13T16:39:24.843Z,14.27
2023-03-13T16:41:51.072Z,14.27
2023-03-13T16:44:17.301Z,14.18
2023-03-13T16:46:55.687Z,14.23
2023-03-13T16:49:29.686Z,14.39
2023-03-13T16:51:55.908Z,14.29
2023-03-13T16:54:22.116Z,14.17
2023-03-13T16:56:48.314Z,14.13
2023-03-13T16:59:15.215Z,14.20
2023-03-13T17:01:41.419Z,14.22
2023-03-13T17:04:07.687Z,14.19
2023-03-13T17:06:35.437Z,14.15
2023-03-13T17:09:01.658Z,14.07
2023-03-13T17:11:27.878Z,14.00
2023-03-13T17:13:54.098Z,14.03
2023-03-13T17:16:21.527Z,14.10
2023-03-13T17:18:48.367Z,14.02
2023-03-13T17:21:18.870Z,14.08
2023-03-13T17:23:45.143Z,14.00
2023-03-13T17:26:15.325Z,13.95
2023-03-13T17:28:41.971Z,14.16
2023-03-13T17:31:09.400Z,14.00
2023-03-13T17:33:35.654Z,14.03
2023-03-13T17:36:01.909Z,14.00
2023-03-13T17:38:28.171Z,13.95
2023-03-13T17:40:54.396Z,14.07
2023-03-13T17:43:20.605Z,14.09
2023-03-13T17:45:46.810Z,14.09
2023-03-13T17:48:13.015Z,14.00
2023-03-13T17:50:39.241Z,14.02
2023-03-13T17:53:05.447Z,13.99
2023-03-13T17:55:31.683Z,13.99
2023-03-13T17:57:57.882Z,13.91
2023-03-13T18:00:25.079Z,13.88
2023-03-13T18:02:51.393Z,13.88
2023-03-13T18:05:17.705Z,13.80
2023-03-13T18:07:43.917Z,13.72
2023-03-13T18:10:17.031Z,13.59
2023-03-13T18:12:43.235Z,13.56
2023-03-13T18:15:09.603Z,13.69
2023-03-13T18:17:35.795Z,13.64
2023-03-13T18:20:02.008Z,13.80
2023-03-13T18:22:28.228Z,13.68
2023-03-13T18:24:54.443Z,13.79
2023-03-13T18:27:21.034Z,13.79
2023-03-13T18:29:47.592Z,13.64
2023-03-13T18:32:14.003Z,13.71
2023-03-13T18:34:40.405Z,13.64
2023-03-13T18:37:14.533Z,13.65
2023-03-13T18:39:40.756Z,13.69
2023-03-13T18:42:06.965Z,13.64
2023-03-13T18:44:33.176Z,13.61
2023-03-13T18:46:59.387Z,13.50
2023-03-13T18:49:25.596Z,13.42
2023-03-13T18:51:52.122Z,13.47
2023-03-13T18:54:18.330Z,13.59
2023-03-13T18:56:44.560Z,13.65
2023-03-13T18:59:11.320Z,13.58
2023-03-13T19:01:37.594Z,13.53
2023-03-13T19:04:03.865Z,13.54
2023-03-13T19:06:34.005Z,13.34
2023-03-13T19:09:00.845Z,13.20
2023-03-13T19:11:28.140Z,13.22
2023-03-13T19:13:54.432Z,13.13
2023-03-13T19:16:25.188Z,13.14
2023-03-13T19:18:51.506Z,12.92
2023-03-13T19:21:20.752Z,13.11
2023-03-13T19:23:46.958Z,12.99
2023-03-13T19:26:17.514Z,13.10
2023-03-13T19:28:43.872Z,12.86
2023-03-13T19:31:10.078Z,12.81
2023-03-13T19:33:36.288Z,12.99
2023-03-13T19:36:02.499Z,12.89
2023-03-13T19:38:28.704Z,12.93
2023-03-13T19:40:54.934Z,12.95
2023-03-13T19:43:21.129Z,12.78
2023-03-13T19:45:47.378Z,12.83
2023-03-13T19:48:13.606Z,12.80
2023-03-13T19:50:39.821Z,13.00
2023-03-13T19:53:06.041Z,12.95
2023-03-13T19:55:32.260Z,12.87
2023-03-13T19:57:58.458Z,12.96
2023-03-13T20:00:25.082Z,13.01
2023-03-13T20:02:51.325Z,13.02
2023-03-13T20:05:17.562Z,12.97
2023-03-13T20:07:43.887Z,13.03
2023-03-13T20:10:10.391Z,13.04
2023-03-13T20:12:36.598Z,13.00
2023-03-13T20:15:02.866Z,12.93
2023-03-13T20:17:29.094Z,12.90
2023-03-13T20:19:55.313Z,12.84
2023-03-13T20:22:21.532Z,12.86
2023-03-13T20:24:47.731Z,12.77
2023-03-13T20:27:14.067Z,12.98
2023-03-13T20:29:40.265Z,13.04
2023-03-13T20:32:06.470Z,13.04
2023-03-13T20:34:32.670Z,12.96
2023-03-13T20:36:58.880Z,12.98
2023-03-13T20:39:25.086Z,13.01
2023-03-13T20:41:51.303Z,12.99
2023-03-13T20:44:17.530Z,13.06
2023-03-13T20:46:43.744Z,12.92
2023-03-13T20:49:09.974Z,12.84
2023-03-13T20:51:36.201Z,12.81
2023-03-13T20:54:02.412Z,12.76
2023-03-13T20:56:28.625Z,12.78
2023-03-13T20:58:54.819Z,12.80
2023-03-13T21:01:22.423Z,12.79
2023-03-13T21:03:48.765Z,12.81
2023-03-13T21:06:15.632Z,12.78
2023-03-13T21:08:41.875Z,12.81
2023-03-13T21:11:11.790Z,12.64
2023-03-13T21:13:37.983Z,12.65
2023-03-13T21:16:04.390Z,12.72
2023-03-13T21:18:30.636Z,12.64
2023-03-13T21:21:01.694Z,12.60
2023-03-13T21:23:27.927Z,12.54
2023-03-13T21:25:54.190Z,12.51
2023-03-13T21:28:20.398Z,12.43
2023-03-13T21:30:46.603Z,12.29
2023-03-13T21:33:12.834Z,12.16
2023-03-13T21:35:39.065Z,11.98
2023-03-13T21:38:05.352Z,11.82
2023-03-13T21:40:31.661Z,11.70
2023-03-13T21:42:57.880Z,11.63
2023-03-13T21:45:24.080Z,11.60
2023-03-13T21:47:50.297Z,11.55
2023-03-13T21:50:16.512Z,11.58
2023-03-13T21:52:42.723Z,11.55
2023-03-13T21:55:10.574Z,11.59
2023-03-13T21:57:36.781Z,11.56
2023-03-13T22:00:03.110Z,11.45
2023-03-13T22:02:29.334Z,11.32
2023-03-13T22:04:55.539Z,11.24
2023-03-13T22:07:21.753Z,11.37
2023-03-13T22:09:47.959Z,11.38
2023-03-13T22:12:14.221Z,11.35
2023-03-13T22:14:40.426Z,11.53
2023-03-13T22:17:06.640Z,11.43
2023-03-13T22:19:32.840Z,11.41
2023-03-13T22:22:00.511Z,11.43
2023-03-13T22:24:26.721Z,11.44
2023-03-13T22:26:52.944Z,11.41
2023-03-13T22:29:19.150Z,11.48
2023-03-13T22:31:45.359Z,11.38
2023-03-13T22:34:11.551Z,11.33
2023-03-13T22:36:37.763Z,11.23
2023-03-13T22:39:03.987Z,11.29
2023-03-13T22:41:30.205Z,11.22
2023-03-13T22:43:56.433Z,11.15
2023-03-13T22:46:22.666Z,11.10
2023-03-13T22:48:48.862Z,11.14
2023-03-13T22:51:15.116Z,11.19
2023-03-13T22:53:41.390Z,11.23
2023-03-13T22:56:07.947Z,11.14
2023-03-13T22:58:34.151Z,11.14
2023-03-13T23:01:00.424Z,10.98
2023-03-13T23:03:26.652Z,11.02
2023-03-13T23:05:52.879Z,11.00
2023-03-13T23:08:19.108Z,11.01
2023-03-13T23:10:45.925Z,10.93
2023-03-13T23:13:12.176Z,10.94
2023-03-13T23:15:55.230Z,10.83
2023-03-13T23:18:22.747Z,10.83
2023-03-13T23:20:48.969Z,10.87
2023-03-13T23:23:15.219Z,10.80
2023-03-13T23:25:41.409Z,10.82
2023-03-13T23:28:07.676Z,10.70
2023-03-13T23:30:33.905Z,10.71
2023-03-13T23:33:00.123Z,10.74
2023-03-13T23:35:26.331Z,10.66
2023-03-13T23:37:52.544Z,10.59
2023-03-13T23:40:18.754Z,10.55
2023-03-13T23:42:45.457Z,10.53
2023-03-13T23:45:11.750Z,10.44
2023-03-13T23:47:37.994Z,10.32
2023-03-13T23:50:04.338Z,10.28
2023-03-13T23:52:32.525Z,10.25
2023-03-13T23:54:58.758Z,10.29
2023-03-13T23:57:24.992Z,10.28
2023-03-13T23:59:51.305Z,10.19
